KCOF/COF METAR and TAF weather

Enter ICAO airport designator
Station Type Date Time Source
KCOF METAR 2022/01/28 23:56 UTC NOAA

KCOF 282356Z AUTO 29013KT 10SM SCT110 17/14 A2989 RMK AO2 SLP126 T01720143 10206 20167 52017 $


Station Type Date Time Source
KCOF Decoded METAR 2022/01/28 23:56 UTC NOAA

Cocoa / Patrick Air Force Base, FL, United States (KCOF) 28-14N 080-36W 3M
Jan 28, 2022 - 06:56 PM EST / 2022.01.28 2356 UTC
Wind: from the WNW (290 degrees) at 15 MPH (13 KT):0
Visibility: 10 mile(s):0
Sky conditions: partly cloudy
Temperature: 63.0 F (17.2 C)
Dew Point: 57.7 F (14.3 C)
Relative Humidity: 83%
Pressure (altimeter): 29.89 in. Hg (1012 hPa)
Pressure tendency: 0.05 inches (1.7 hPa) higher than three hours ago
ob: KCOF 282356Z AUTO 29013KT 10SM SCT110 17/14 A2989 RMK AO2 SLP126 T01720143 10206 20167 52017
cycle: 0

Station Type Date Time Source
KCOF TAF 2022/01/28 19:09 UTC NOAA

TAF KCOF 281900Z 2819/3001 30012G18KT 9999 OVC006 QNH2989INS
BECMG 2821/2822 30015G20KT 9999 SCT005 BKN015 QNH2989INS
BECMG 2904/2905 30020G30KT 9999 SCT010 BKN020 QNH2995INS
BECMG 2907/2908 31025G35KT 9999 FEW030 QNH3002INS
BECMG 2913/2914 31020G30KT 9999 SKC QNH3010INS
BECMG 2922/2923 31012G18KT 9999 SKC QNH3014INS TX17/2819Z TN05/2912Z

Example: see airport list